KIDI

Indiana County / Jimmy Stewart Field / Airport

Indiana, Pennsylvania, USA
METAR KIDI 191515Z AUTO 00000KT 10SM BKN019 21/17 A3006 RMK A01
Observed Flight Rules
Aug-19 @ 15:15 UTC (23 minutes ago) Marginal Visual Flight Rules
Visibility Clouds
10 miles
  • Broken at 1,900' AGL
Temperatures Readings
Current 21°C / 70°F
Dewpoint 17°C / 63°F
Humidity 78%
Altimeter 30.06" Hg
Pressure 1018 hPa
Elevation 429
METAR KIDI 191515Z AUTO 00000KT 10SM BKN019 21/17 A3006 RMK A01
Observed Flight Rules
Aug-19 @ 15:15 UTC
(23 minutes ago)
MVFR
Clouds
  • Broken at 1,900' AGL
Temperature Dewpoint
21°C / 70°F 17°C / 63°F
Humidity Altimeter Pressure
78% 30.06" Hg 1018 hPa